sensor_id;sensor_type;location;lat;lon;timestamp;temperature;humidity
7622;DHT22;3852;52.284;8.032;2022-12-05T00:03:51;3.10;99.90
7622;DHT22;3852;52.284;8.032;2022-12-05T00:06:19;3.20;99.90
7622;DHT22;3852;52.284;8.032;2022-12-05T00:08:46;3.20;99.90
7622;DHT22;3852;52.284;8.032;2022-12-05T00:11:15;3.20;99.90
7622;DHT22;3852;52.284;8.032;2022-12-05T00:13:48;3.20;99.90
7622;DHT22;3852;52.284;8.032;2022-12-05T00:16:18;3.20;99.90
7622;DHT22;3852;52.284;8.032;2022-12-05T00:18:45;3.30;99.90
7622;DHT22;3852;52.284;8.032;2022-12-05T00:21:14;3.30;99.90
7622;DHT22;3852;52.284;8.032;2022-12-05T00:23:42;3.30;99.90
7622;DHT22;3852;52.284;8.032;2022-12-05T00:26:08;3.30;99.90
7622;DHT22;3852;52.284;8.032;2022-12-05T00:28:34;3.30;99.90
7622;DHT22;3852;52.284;8.032;2022-12-05T00:31:09;3.30;99.90
7622;DHT22;3852;52.284;8.032;2022-12-05T00:33:37;3.20;99.90
7622;DHT22;3852;52.284;8.032;2022-12-05T00:36:04;3.20;99.90
7622;DHT22;3852;52.284;8.032;2022-12-05T00:38:32;3.30;99.90
7622;DHT22;3852;52.284;8.032;2022-12-05T00:41:05;3.30;99.90
7622;DHT22;3852;52.284;8.032;2022-12-05T00:43:34;3.40;99.90
7622;DHT22;3852;52.284;8.032;2022-12-05T00:46:08;3.30;99.90
7622;DHT22;3852;52.284;8.032;2022-12-05T00:48:36;3.40;99.90
7622;DHT22;3852;52.284;8.032;2022-12-05T00:51:09;3.40;99.90
7622;DHT22;3852;52.284;8.032;2022-12-05T00:53:38;3.40;99.90
7622;DHT22;3852;52.284;8.032;2022-12-05T00:56:08;3.40;99.90
7622;DHT22;3852;52.284;8.032;2022-12-05T00:58:35;3.40;99.90
7622;DHT22;3852;52.284;8.032;2022-12-05T01:01:12;3.40;99.90
7622;DHT22;3852;52.284;8.032;2022-12-05T01:03:43;3.40;99.90
7622;DHT22;3852;52.284;8.032;2022-12-05T01:06:10;3.30;99.90
7622;DHT22;3852;52.284;8.032;2022-12-05T01:08:37;3.40;99.90
7622;DHT22;3852;52.284;8.032;2022-12-05T01:11:04;3.40;99.90
7622;DHT22;3852;52.284;8.032;2022-12-05T01:13:31;3.50;99.90
7622;DHT22;3852;52.284;8.032;2022-12-05T01:15:58;3.50;99.90
7622;DHT22;3852;52.284;8.032;2022-12-05T01:18:24;3.60;99.90
7622;DHT22;3852;52.284;8.032;2022-12-05T01:20:50;3.50;99.90
7622;DHT22;3852;52.284;8.032;2022-12-05T01:23:17;3.50;99.90
7622;DHT22;3852;52.284;8.032;2022-12-05T01:25:47;3.50;99.90
7622;DHT22;3852;52.284;8.032;2022-12-05T01:28:14;3.50;99.90
7622;DHT22;3852;52.284;8.032;2022-12-05T01:30:45;3.60;99.90
7622;DHT22;3852;52.284;8.032;2022-12-05T01:33:12;3.70;99.90
7622;DHT22;3852;52.284;8.032;2022-12-05T01:35:39;3.70;99.90
7622;DHT22;3852;52.284;8.032;2022-12-05T01:38:06;3.60;99.90
7622;DHT22;3852;52.284;8.032;2022-12-05T01:40:33;3.60;99.90
7622;DHT22;3852;52.284;8.032;2022-12-05T01:43:03;3.70;99.90
7622;DHT22;3852;52.284;8.032;2022-12-05T01:45:38;3.70;99.90
7622;DHT22;3852;52.284;8.032;2022-12-05T01:48:16;3.70;99.90
7622;DHT22;3852;52.284;8.032;2022-12-05T01:50:44;3.70;99.90
7622;DHT22;3852;52.284;8.032;2022-12-05T01:53:11;3.70;99.90
7622;DHT22;3852;52.284;8.032;2022-12-05T01:55:37;3.60;99.90
7622;DHT22;3852;52.284;8.032;2022-12-05T01:58:05;3.60;99.90
7622;DHT22;3852;52.284;8.032;2022-12-05T02:00:32;3.70;99.90
7622;DHT22;3852;52.284;8.032;2022-12-05T02:03:01;3.70;99.90
7622;DHT22;3852;52.284;8.032;2022-12-05T02:05:32;3.60;99.90
7622;DHT22;3852;52.284;8.032;2022-12-05T02:08:05;3.70;99.90
7622;DHT22;3852;52.284;8.032;2022-12-05T02:10:39;3.80;99.90
7622;DHT22;3852;52.284;8.032;2022-12-05T02:30:39;4.10;99.90
7622;DHT22;3852;52.284;8.032;2022-12-05T02:36:22;4.20;99.90
7622;DHT22;3852;52.284;8.032;2022-12-05T02:39:21;4.10;99.90
7622;DHT22;3852;52.284;8.032;2022-12-05T02:42:09;4.10;99.90
7622;DHT22;3852;52.284;8.032;2022-12-05T02:45:04;4.00;99.90
7622;DHT22;3852;52.284;8.032;2022-12-05T02:47:37;4.00;99.90
7622;DHT22;3852;52.284;8.032;2022-12-05T02:50:13;3.90;99.90
7622;DHT22;3852;52.284;8.032;2022-12-05T02:52:42;3.90;99.90
7622;DHT22;3852;52.284;8.032;2022-12-05T02:55:10;3.90;99.90
7622;DHT22;3852;52.284;8.032;2022-12-05T02:57:38;3.90;99.90
7622;DHT22;3852;52.284;8.032;2022-12-05T03:00:05;3.90;99.90
7622;DHT22;3852;52.284;8.032;2022-12-05T03:02:33;3.90;99.90
7622;DHT22;3852;52.284;8.032;2022-12-05T03:05:31;4.00;99.90
7622;DHT22;3852;52.284;8.032;2022-12-05T03:08:05;4.00;99.90
7622;DHT22;3852;52.284;8.032;2022-12-05T03:10:33;4.00;99.90
7622;DHT22;3852;52.284;8.032;2022-12-05T03:13:06;4.00;99.90
7622;DHT22;3852;52.284;8.032;2022-12-05T03:15:39;4.00;99.90
7622;DHT22;3852;52.284;8.032;2022-12-05T03:18:16;4.10;99.90
7622;DHT22;3852;52.284;8.032;2022-12-05T03:21:10;4.10;99.90
7622;DHT22;3852;52.284;8.032;2022-12-05T03:23:44;4.10;99.90
7622;DHT22;3852;52.284;8.032;2022-12-05T03:29:33;4.20;99.90
7622;DHT22;3852;52.284;8.032;2022-12-05T03:32:21;4.20;99.90
7622;DHT22;3852;52.284;8.032;2022-12-05T03:35:28;4.10;99.90
7622;DHT22;3852;52.284;8.032;2022-12-05T03:38:02;4.10;99.90
7622;DHT22;3852;52.284;8.032;2022-12-05T03:46:36;4.10;99.90
7622;DHT22;3852;52.284;8.032;2022-12-05T03:49:17;4.20;99.90
7622;DHT22;3852;52.284;8.032;2022-12-05T03:52:43;4.30;99.90
7622;DHT22;3852;52.284;8.032;2022-12-05T03:55:07;4.50;99.90
7622;DHT22;3852;52.284;8.032;2022-12-05T03:57:58;4.30;99.90
7622;DHT22;3852;52.284;8.032;2022-12-05T04:00:29;4.20;99.90
7622;DHT22;3852;52.284;8.032;2022-12-05T04:03:06;4.20;99.90
7622;DHT22;3852;52.284;8.032;2022-12-05T04:08:25;4.20;99.90
7622;DHT22;3852;52.284;8.032;2022-12-05T04:11:10;4.10;99.90
7622;DHT22;3852;52.284;8.032;2022-12-05T04:13:59;4.00;99.90
7622;DHT22;3852;52.284;8.032;2022-12-05T04:16:42;4.00;99.90
7622;DHT22;3852;52.284;8.032;2022-12-05T04:19:43;3.90;99.90
7622;DHT22;3852;52.284;8.032;2022-12-05T04:22:49;3.90;99.90
7622;DHT22;3852;52.284;8.032;2022-12-05T04:25:16;4.00;99.90
7622;DHT22;3852;52.284;8.032;2022-12-05T04:28:33;4.00;99.90
7622;DHT22;3852;52.284;8.032;2022-12-05T04:31:15;4.00;99.90
7622;DHT22;3852;52.284;8.032;2022-12-05T04:33:59;3.90;99.90
7622;DHT22;3852;52.284;8.032;2022-12-05T04:36:42;4.00;99.90
7622;DHT22;3852;52.284;8.032;2022-12-05T04:39:24;4.00;99.90
7622;DHT22;3852;52.284;8.032;2022-12-05T04:42:08;3.90;99.90
7622;DHT22;3852;52.284;8.032;2022-12-05T04:44:41;4.00;99.90
7622;DHT22;3852;52.284;8.032;2022-12-05T04:47:11;4.10;99.90
7622;DHT22;3852;52.284;8.032;2022-12-05T04:49:40;4.00;99.90
7622;DHT22;3852;52.284;8.032;2022-12-05T04:52:09;3.90;99.90
7622;DHT22;3852;52.284;8.032;2022-12-05T04:55:02;3.90;99.90
7622;DHT22;3852;52.284;8.032;2022-12-05T04:58:01;4.00;99.90
7622;DHT22;3852;52.284;8.032;2022-12-05T05:03:53;3.80;99.90
7622;DHT22;3852;52.284;8.032;2022-12-05T05:06:25;3.70;99.90
7622;DHT22;3852;52.284;8.032;2022-12-05T05:08:53;3.70;99.90
7622;DHT22;3852;52.284;8.032;2022-12-05T05:11:26;3.70;99.90
7622;DHT22;3852;52.284;8.032;2022-12-05T05:13:54;3.60;99.90
7622;DHT22;3852;52.284;8.032;2022-12-05T05:16:34;3.60;99.90
7622;DHT22;3852;52.284;8.032;2022-12-05T05:19:02;3.60;99.90
7622;DHT22;3852;52.284;8.032;2022-12-05T05:21:37;3.50;99.90
7622;DHT22;3852;52.284;8.032;2022-12-05T05:24:04;3.50;99.90
7622;DHT22;3852;52.284;8.032;2022-12-05T05:26:35;3.50;99.90
7622;DHT22;3852;52.284;8.032;2022-12-05T05:29:03;3.50;99.90
7622;DHT22;3852;52.284;8.032;2022-12-05T05:31:29;3.50;99.90
7622;DHT22;3852;52.284;8.032;2022-12-05T05:33:55;3.50;99.90
7622;DHT22;3852;52.284;8.032;2022-12-05T05:36:23;3.40;99.90
7622;DHT22;3852;52.284;8.032;2022-12-05T05:38:52;3.40;99.90
7622;DHT22;3852;52.284;8.032;2022-12-05T05:41:25;3.40;99.90
7622;DHT22;3852;52.284;8.032;2022-12-05T05:43:58;3.40;99.90
7622;DHT22;3852;52.284;8.032;2022-12-05T05:46:28;3.40;99.90
7622;DHT22;3852;52.284;8.032;2022-12-05T05:48:56;3.50;99.90
7622;DHT22;3852;52.284;8.032;2022-12-05T05:51:22;3.50;99.90
7622;DHT22;3852;52.284;8.032;2022-12-05T05:53:53;3.50;99.90
7622;DHT22;3852;52.284;8.032;2022-12-05T05:56:20;3.40;99.90
7622;DHT22;3852;52.284;8.032;2022-12-05T05:58:46;3.50;99.90
7622;DHT22;3852;52.284;8.032;2022-12-05T06:01:18;3.50;99.90
7622;DHT22;3852;52.284;8.032;2022-12-05T06:03:48;3.70;99.90
7622;DHT22;3852;52.284;8.032;2022-12-05T06:06:15;3.70;99.90
7622;DHT22;3852;52.284;8.032;2022-12-05T06:08:42;3.70;99.90
7622;DHT22;3852;52.284;8.032;2022-12-05T06:11:20;3.70;99.90
7622;DHT22;3852;52.284;8.032;2022-12-05T06:13:48;3.70;99.90
7622;DHT22;3852;52.284;8.032;2022-12-05T06:16:16;3.70;99.90
7622;DHT22;3852;52.284;8.032;2022-12-05T06:18:43;3.70;99.90
7622;DHT22;3852;52.284;8.032;2022-12-05T06:21:09;3.60;99.90
7622;DHT22;3852;52.284;8.032;2022-12-05T06:23:36;3.60;99.90
7622;DHT22;3852;52.284;8.032;2022-12-05T06:26:03;3.60;99.90
7622;DHT22;3852;52.284;8.032;2022-12-05T06:28:30;3.60;99.90
7622;DHT22;3852;52.284;8.032;2022-12-05T06:30:56;3.60;99.90
7622;DHT22;3852;52.284;8.032;2022-12-05T06:33:23;3.60;99.90
7622;DHT22;3852;52.284;8.032;2022-12-05T06:36:07;3.60;99.90
7622;DHT22;3852;52.284;8.032;2022-12-05T06:38:34;3.60;99.90
7622;DHT22;3852;52.284;8.032;2022-12-05T06:41:07;3.70;99.90
7622;DHT22;3852;52.284;8.032;2022-12-05T06:43:35;3.70;99.90
7622;DHT22;3852;52.284;8.032;2022-12-05T06:46:05;3.80;99.90
7622;DHT22;3852;52.284;8.032;2022-12-05T06:48:31;3.60;99.90
7622;DHT22;3852;52.284;8.032;2022-12-05T06:50:57;3.60;99.90
7622;DHT22;3852;52.284;8.032;2022-12-05T06:53:24;3.70;99.90
7622;DHT22;3852;52.284;8.032;2022-12-05T06:56:01;3.70;99.90
7622;DHT22;3852;52.284;8.032;2022-12-05T06:58:30;3.70;99.90
7622;DHT22;3852;52.284;8.032;2022-12-05T07:00:56;3.70;99.90
7622;DHT22;3852;52.284;8.032;2022-12-05T07:03:40;3.80;99.90
7622;DHT22;3852;52.284;8.032;2022-12-05T07:06:08;3.90;99.90
7622;DHT22;3852;52.284;8.032;2022-12-05T07:08:34;3.90;99.90
7622;DHT22;3852;52.284;8.032;2022-12-05T07:11:01;3.90;99.90
7622;DHT22;3852;52.284;8.032;2022-12-05T07:13:28;3.90;99.90
7622;DHT22;3852;52.284;8.032;2022-12-05T07:15:53;3.90;99.90
7622;DHT22;3852;52.284;8.032;2022-12-05T07:18:19;4.00;99.90
7622;DHT22;3852;52.284;8.032;2022-12-05T07:20:55;3.90;99.90
7622;DHT22;3852;52.284;8.032;2022-12-05T07:23:22;3.90;99.90
7622;DHT22;3852;52.284;8.032;2022-12-05T07:25:48;4.10;99.90
7622;DHT22;3852;52.284;8.032;2022-12-05T07:28:14;4.00;99.90
7622;DHT22;3852;52.284;8.032;2022-12-05T07:30:39;4.10;99.90
7622;DHT22;3852;52.284;8.032;2022-12-05T07:33:05;4.00;99.90
7622;DHT22;3852;52.284;8.032;2022-12-05T07:35:31;4.00;99.90
7622;DHT22;3852;52.284;8.032;2022-12-05T07:37:57;4.00;99.90
7622;DHT22;3852;52.284;8.032;2022-12-05T07:40:23;3.90;99.90
7622;DHT22;3852;52.284;8.032;2022-12-05T07:42:51;4.10;99.90
7622;DHT22;3852;52.284;8.032;2022-12-05T07:45:20;4.10;99.90
7622;DHT22;3852;52.284;8.032;2022-12-05T07:47:47;4.10;99.90
7622;DHT22;3852;52.284;8.032;2022-12-05T07:50:13;4.10;99.90
7622;DHT22;3852;52.284;8.032;2022-12-05T07:52:39;4.10;99.90
7622;DHT22;3852;52.284;8.032;2022-12-05T07:55:06;4.20;99.90
7622;DHT22;3852;52.284;8.032;2022-12-05T07:57:32;4.10;99.90
7622;DHT22;3852;52.284;8.032;2022-12-05T07:59:58;4.10;99.90
7622;DHT22;3852;52.284;8.032;2022-12-05T08:02:24;4.10;99.90
7622;DHT22;3852;52.284;8.032;2022-12-05T08:04:50;4.10;99.90
7622;DHT22;3852;52.284;8.032;2022-12-05T08:07:15;4.10;99.90
7622;DHT22;3852;52.284;8.032;2022-12-05T08:09:41;4.10;99.90
7622;DHT22;3852;52.284;8.032;2022-12-05T08:12:07;4.10;99.90
7622;DHT22;3852;52.284;8.032;2022-12-05T08:14:33;4.20;99.90
7622;DHT22;3852;52.284;8.032;2022-12-05T08:16:59;4.30;99.90
7622;DHT22;3852;52.284;8.032;2022-12-05T08:19:25;4.20;99.90
7622;DHT22;3852;52.284;8.032;2022-12-05T08:21:53;4.10;99.90
7622;DHT22;3852;52.284;8.032;2022-12-05T08:24:19;4.10;99.90
7622;DHT22;3852;52.284;8.032;2022-12-05T08:26:45;4.10;99.90
7622;DHT22;3852;52.284;8.032;2022-12-05T08:29:13;4.00;99.90
7622;DHT22;3852;52.284;8.032;2022-12-05T08:31:43;4.10;99.90
7622;DHT22;3852;52.284;8.032;2022-12-05T08:34:12;4.10;99.90
7622;DHT22;3852;52.284;8.032;2022-12-05T08:36:38;4.20;99.90
7622;DHT22;3852;52.284;8.032;2022-12-05T08:39:06;4.20;99.90
7622;DHT22;3852;52.284;8.032;2022-12-05T08:41:33;4.20;99.90
7622;DHT22;3852;52.284;8.032;2022-12-05T08:44:05;4.30;99.90
7622;DHT22;3852;52.284;8.032;2022-12-05T08:46:34;4.50;99.90
7622;DHT22;3852;52.284;8.032;2022-12-05T08:49:02;4.50;99.90
7622;DHT22;3852;52.284;8.032;2022-12-05T08:51:29;4.60;99.90
7622;DHT22;3852;52.284;8.032;2022-12-05T08:53:54;4.60;99.90
7622;DHT22;3852;52.284;8.032;2022-12-05T08:56:21;4.60;99.90
7622;DHT22;3852;52.284;8.032;2022-12-05T08:58:47;4.70;99.90
7622;DHT22;3852;52.284;8.032;2022-12-05T09:01:18;4.60;99.90
7622;DHT22;3852;52.284;8.032;2022-12-05T09:03:45;4.70;99.90
7622;DHT22;3852;52.284;8.032;2022-12-05T09:06:17;4.60;99.90
7622;DHT22;3852;52.284;8.032;2022-12-05T09:08:45;4.60;99.90
7622;DHT22;3852;52.284;8.032;2022-12-05T09:11:15;4.60;99.90
7622;DHT22;3852;52.284;8.032;2022-12-05T09:13:42;4.40;99.90
7622;DHT22;3852;52.284;8.032;2022-12-05T09:16:15;4.30;99.90
7622;DHT22;3852;52.284;8.032;2022-12-05T09:18:46;4.30;99.90
7622;DHT22;3852;52.284;8.032;2022-12-05T09:21:18;4.30;99.90
7622;DHT22;3852;52.284;8.032;2022-12-05T09:23:46;4.20;99.90
7622;DHT22;3852;52.284;8.032;2022-12-05T09:26:14;4.30;99.90
7622;DHT22;3852;52.284;8.032;2022-12-05T09:28:42;4.30;99.90
7622;DHT22;3852;52.284;8.032;2022-12-05T09:31:14;4.30;99.90
7622;DHT22;3852;52.284;8.032;2022-12-05T09:33:41;4.50;99.90
7622;DHT22;3852;52.284;8.032;2022-12-05T09:36:13;4.30;99.90
7622;DHT22;3852;52.284;8.032;2022-12-05T09:38:44;4.30;99.90
7622;DHT22;3852;52.284;8.032;2022-12-05T09:47:27;4.40;99.90
7622;DHT22;3852;52.284;8.032;2022-12-05T09:50:16;4.30;99.90
7622;DHT22;3852;52.284;8.032;2022-12-05T09:56:01;4.30;99.90
7622;DHT22;3852;52.284;8.032;2022-12-05T09:58:52;4.30;99.90
7622;DHT22;3852;52.284;8.032;2022-12-05T10:01:42;4.20;99.90
7622;DHT22;3852;52.284;8.032;2022-12-05T10:04:57;4.10;99.90
7622;DHT22;3852;52.284;8.032;2022-12-05T10:07:50;4.20;99.90
7622;DHT22;3852;52.284;8.032;2022-12-05T10:10:38;4.30;99.90
7622;DHT22;3852;52.284;8.032;2022-12-05T10:16:02;4.20;99.90
7622;DHT22;3852;52.284;8.032;2022-12-05T10:18:36;4.10;99.90
7622;DHT22;3852;52.284;8.032;2022-12-05T10:26:26;4.00;99.90
7622;DHT22;3852;52.284;8.032;2022-12-05T10:31:43;4.00;99.90
7622;DHT22;3852;52.284;8.032;2022-12-05T10:34:30;3.80;99.90
7622;DHT22;3852;52.284;8.032;2022-12-05T10:39:48;3.70;99.90
7622;DHT22;3852;52.284;8.032;2022-12-05T10:42:24;3.70;99.90
7622;DHT22;3852;52.284;8.032;2022-12-05T10:44:56;3.60;99.90
7622;DHT22;3852;52.284;8.032;2022-12-05T10:47:24;3.50;99.90
7622;DHT22;3852;52.284;8.032;2022-12-05T10:49:50;3.60;99.90
7622;DHT22;3852;52.284;8.032;2022-12-05T10:52:17;3.60;99.90
7622;DHT22;3852;52.284;8.032;2022-12-05T10:54:50;3.50;99.90
7622;DHT22;3852;52.284;8.032;2022-12-05T10:57:25;3.50;99.90
7622;DHT22;3852;52.284;8.032;2022-12-05T10:59:52;3.50;99.90
7622;DHT22;3852;52.284;8.032;2022-12-05T11:02:25;3.40;99.90
7622;DHT22;3852;52.284;8.032;2022-12-05T11:04:55;3.40;99.90
7622;DHT22;3852;52.284;8.032;2022-12-05T11:07:29;3.40;99.90
7622;DHT22;3852;52.284;8.032;2022-12-05T11:09:58;3.30;99.90
7622;DHT22;3852;52.284;8.032;2022-12-05T11:12:36;3.30;99.90
7622;DHT22;3852;52.284;8.032;2022-12-05T11:17:41;3.30;99.90
7622;DHT22;3852;52.284;8.032;2022-12-05T11:22:43;3.40;99.90
7622;DHT22;3852;52.284;8.032;2022-12-05T11:25:33;3.40;99.90
7622;DHT22;3852;52.284;8.032;2022-12-05T11:33:37;3.50;99.90
7622;DHT22;3852;52.284;8.032;2022-12-05T11:36:16;3.50;99.90
7622;DHT22;3852;52.284;8.032;2022-12-05T11:38:44;3.40;99.90
7622;DHT22;3852;52.284;8.032;2022-12-05T11:55:27;3.30;99.90
7622;DHT22;3852;52.284;8.032;2022-12-05T12:01:14;3.30;99.90
7622;DHT22;3852;52.284;8.032;2022-12-05T12:24:39;3.40;99.90
7622;DHT22;3852;52.284;8.032;2022-12-05T12:33:13;3.50;99.90
7622;DHT22;3852;52.284;8.032;2022-12-05T12:36:09;3.50;99.90
7622;DHT22;3852;52.284;8.032;2022-12-05T12:50:23;2.90;99.90
7622;DHT22;3852;52.284;8.032;2022-12-05T12:53:05;2.90;99.90
7622;DHT22;3852;52.284;8.032;2022-12-05T12:55:45;2.90;99.90
7622;DHT22;3852;52.284;8.032;2022-12-05T13:03:51;2.80;99.90
7622;DHT22;3852;52.284;8.032;2022-12-05T13:06:31;2.90;99.90
7622;DHT22;3852;52.284;8.032;2022-12-05T13:09:03;2.80;99.90
7622;DHT22;3852;52.284;8.032;2022-12-05T13:11:37;2.80;99.90
7622;DHT22;3852;52.284;8.032;2022-12-05T13:14:10;2.80;99.90
7622;DHT22;3852;52.284;8.032;2022-12-05T13:16:43;2.80;99.90
7622;DHT22;3852;52.284;8.032;2022-12-05T13:19:22;2.80;99.90
7622;DHT22;3852;52.284;8.032;2022-12-05T13:21:56;2.80;99.90
7622;DHT22;3852;52.284;8.032;2022-12-05T13:24:25;2.70;99.90
7622;DHT22;3852;52.284;8.032;2022-12-05T13:26:53;2.70;99.90
7622;DHT22;3852;52.284;8.032;2022-12-05T13:29:32;2.80;99.90
7622;DHT22;3852;52.284;8.032;2022-12-05T13:32:02;2.80;99.90
7622;DHT22;3852;52.284;8.032;2022-12-05T13:34:35;2.80;99.90
7622;DHT22;3852;52.284;8.032;2022-12-05T13:37:18;2.80;99.90
7622;DHT22;3852;52.284;8.032;2022-12-05T13:40:05;2.80;99.90
7622;DHT22;3852;52.284;8.032;2022-12-05T13:43:12;2.80;99.90
7622;DHT22;3852;52.284;8.032;2022-12-05T13:45:47;2.80;99.90
7622;DHT22;3852;52.284;8.032;2022-12-05T13:48:22;2.80;99.90
7622;DHT22;3852;52.284;8.032;2022-12-05T13:51:02;2.70;99.90
7622;DHT22;3852;52.284;8.032;2022-12-05T13:53:45;2.70;99.90
7622;DHT22;3852;52.284;8.032;2022-12-05T14:23:02;2.60;99.90
7622;DHT22;3852;52.284;8.032;2022-12-05T14:25:34;2.60;99.90
7622;DHT22;3852;52.284;8.032;2022-12-05T14:32:15;2.80;99.90
7622;DHT22;3852;52.284;8.032;2022-12-05T14:35:16;2.80;99.90
7622;DHT22;3852;52.284;8.032;2022-12-05T14:43:04;2.80;99.90
7622;DHT22;3852;52.284;8.032;2022-12-05T14:50:50;2.80;99.90
7622;DHT22;3852;52.284;8.032;2022-12-05T15:04:35;2.50;99.90
7622;DHT22;3852;52.284;8.032;2022-12-05T15:07:11;2.40;99.90
7622;DHT22;3852;52.284;8.032;2022-12-05T15:09:55;2.40;99.90
7622;DHT22;3852;52.284;8.032;2022-12-05T15:15:13;2.40;99.90
7622;DHT22;3852;52.284;8.032;2022-12-05T15:17:55;2.40;99.90
7622;DHT22;3852;52.284;8.032;2022-12-05T15:20:41;2.30;99.90
7622;DHT22;3852;52.284;8.032;2022-12-05T15:26:30;2.30;99.90
7622;DHT22;3852;52.284;8.032;2022-12-05T15:31:47;2.50;99.90
7622;DHT22;3852;52.284;8.032;2022-12-05T15:37:02;2.50;99.90
7622;DHT22;3852;52.284;8.032;2022-12-05T15:39:29;2.50;99.90
7622;DHT22;3852;52.284;8.032;2022-12-05T15:42:28;2.60;99.90
7622;DHT22;3852;52.284;8.032;2022-12-05T15:45:14;2.50;99.90
7622;DHT22;3852;52.284;8.032;2022-12-05T15:47:45;2.50;99.90
7622;DHT22;3852;52.284;8.032;2022-12-05T15:50:14;2.50;99.90
7622;DHT22;3852;52.284;8.032;2022-12-05T15:52:46;2.50;99.90
7622;DHT22;3852;52.284;8.032;2022-12-05T15:56:02;2.60;99.90
7622;DHT22;3852;52.284;8.032;2022-12-05T16:01:41;2.50;99.90
7622;DHT22;3852;52.284;8.032;2022-12-05T16:04:56;2.50;99.90
7622;DHT22;3852;52.284;8.032;2022-12-05T16:07:15;2.40;99.90
7622;DHT22;3852;52.284;8.032;2022-12-05T16:09:43;2.30;99.90
7622;DHT22;3852;52.284;8.032;2022-12-05T16:12:30;2.30;99.90
7622;DHT22;3852;52.284;8.032;2022-12-05T16:15:02;2.30;99.90
7622;DHT22;3852;52.284;8.032;2022-12-05T16:17:40;2.40;99.90
7622;DHT22;3852;52.284;8.032;2022-12-05T16:20:23;2.40;99.90
7622;DHT22;3852;52.284;8.032;2022-12-05T16:22:57;2.40;99.90
7622;DHT22;3852;52.284;8.032;2022-12-05T16:25:33;2.40;99.90
7622;DHT22;3852;52.284;8.032;2022-12-05T16:28:15;2.40;99.90
7622;DHT22;3852;52.284;8.032;2022-12-05T16:30:57;2.40;99.90
7622;DHT22;3852;52.284;8.032;2022-12-05T16:33:25;2.40;99.90
7622;DHT22;3852;52.284;8.032;2022-12-05T16:35:53;2.40;99.90
7622;DHT22;3852;52.284;8.032;2022-12-05T16:38:26;2.40;99.90
7622;DHT22;3852;52.284;8.032;2022-12-05T16:41:01;2.40;99.90
7622;DHT22;3852;52.284;8.032;2022-12-05T16:51:42;2.40;99.90
7622;DHT22;3852;52.284;8.032;2022-12-05T16:54:09;2.40;99.90
7622;DHT22;3852;52.284;8.032;2022-12-05T16:56:35;2.40;99.90
7622;DHT22;3852;52.284;8.032;2022-12-05T16:59:05;2.40;99.90
7622;DHT22;3852;52.284;8.032;2022-12-05T17:01:32;2.40;99.90
7622;DHT22;3852;52.284;8.032;2022-12-05T17:03:58;2.40;99.90
7622;DHT22;3852;52.284;8.032;2022-12-05T17:06:24;2.40;99.90
7622;DHT22;3852;52.284;8.032;2022-12-05T17:08:51;2.40;99.90
7622;DHT22;3852;52.284;8.032;2022-12-05T17:11:24;2.50;99.90
7622;DHT22;3852;52.284;8.032;2022-12-05T17:13:52;2.40;99.90
7622;DHT22;3852;52.284;8.032;2022-12-05T17:16:19;2.40;99.90
7622;DHT22;3852;52.284;8.032;2022-12-05T17:18:45;2.40;99.90
7622;DHT22;3852;52.284;8.032;2022-12-05T17:21:20;2.50;99.90
7622;DHT22;3852;52.284;8.032;2022-12-05T17:23:47;2.40;99.90
7622;DHT22;3852;52.284;8.032;2022-12-05T17:26:17;2.40;99.90
7622;DHT22;3852;52.284;8.032;2022-12-05T17:28:44;2.40;99.90
7622;DHT22;3852;52.284;8.032;2022-12-05T17:31:13;2.40;99.90
7622;DHT22;3852;52.284;8.032;2022-12-05T17:33:42;2.40;99.90
7622;DHT22;3852;52.284;8.032;2022-12-05T17:36:08;2.40;99.90
7622;DHT22;3852;52.284;8.032;2022-12-05T17:38:34;2.40;99.90
7622;DHT22;3852;52.284;8.032;2022-12-05T17:41:00;2.40;99.90
7622;DHT22;3852;52.284;8.032;2022-12-05T17:43:26;2.30;99.90
7622;DHT22;3852;52.284;8.032;2022-12-05T17:45:52;2.40;99.90
7622;DHT22;3852;52.284;8.032;2022-12-05T17:48:19;2.40;99.90
7622;DHT22;3852;52.284;8.032;2022-12-05T17:50:47;2.30;99.90
7622;DHT22;3852;52.284;8.032;2022-12-05T17:53:18;2.30;99.90
7622;DHT22;3852;52.284;8.032;2022-12-05T17:55:45;2.30;99.90
7622;DHT22;3852;52.284;8.032;2022-12-05T17:58:16;2.30;99.90
7622;DHT22;3852;52.284;8.032;2022-12-05T18:00:43;2.40;99.90
7622;DHT22;3852;52.284;8.032;2022-12-05T18:03:14;2.30;99.90
7622;DHT22;3852;52.284;8.032;2022-12-05T18:05:41;2.30;99.90
7622;DHT22;3852;52.284;8.032;2022-12-05T18:08:08;2.30;99.90
7622;DHT22;3852;52.284;8.032;2022-12-05T18:10:34;2.40;99.90
7622;DHT22;3852;52.284;8.032;2022-12-05T18:13:00;2.40;99.90
7622;DHT22;3852;52.284;8.032;2022-12-05T18:15:26;2.40;99.90
7622;DHT22;3852;52.284;8.032;2022-12-05T18:17:51;2.40;99.90
7622;DHT22;3852;52.284;8.032;2022-12-05T18:20:19;2.40;99.90
7622;DHT22;3852;52.284;8.032;2022-12-05T18:22:45;2.40;99.90
7622;DHT22;3852;52.284;8.032;2022-12-05T18:25:13;2.40;99.90
7622;DHT22;3852;52.284;8.032;2022-12-05T18:27:39;2.40;99.90
7622;DHT22;3852;52.284;8.032;2022-12-05T18:30:05;2.40;99.90
7622;DHT22;3852;52.284;8.032;2022-12-05T18:32:32;2.40;99.90
7622;DHT22;3852;52.284;8.032;2022-12-05T18:34:58;2.40;99.90
7622;DHT22;3852;52.284;8.032;2022-12-05T18:37:26;2.40;99.90
7622;DHT22;3852;52.284;8.032;2022-12-05T18:39:53;2.40;99.90
7622;DHT22;3852;52.284;8.032;2022-12-05T18:42:21;2.40;99.90
7622;DHT22;3852;52.284;8.032;2022-12-05T18:44:47;2.30;99.90
7622;DHT22;3852;52.284;8.032;2022-12-05T18:47:17;2.40;99.90
7622;DHT22;3852;52.284;8.032;2022-12-05T18:49:43;2.30;99.90
7622;DHT22;3852;52.284;8.032;2022-12-05T18:52:09;2.40;99.90
7622;DHT22;3852;52.284;8.032;2022-12-05T18:54:34;2.30;99.90
7622;DHT22;3852;52.284;8.032;2022-12-05T18:57:00;2.40;99.90
7622;DHT22;3852;52.284;8.032;2022-12-05T18:59:26;2.30;99.90
7622;DHT22;3852;52.284;8.032;2022-12-05T19:01:55;2.30;99.90
7622;DHT22;3852;52.284;8.032;2022-12-05T19:04:25;2.40;99.90
7622;DHT22;3852;52.284;8.032;2022-12-05T19:06:54;2.40;99.90
7622;DHT22;3852;52.284;8.032;2022-12-05T19:09:24;2.30;99.90
7622;DHT22;3852;52.284;8.032;2022-12-05T19:11:56;2.30;99.90
7622;DHT22;3852;52.284;8.032;2022-12-05T19:14:25;2.30;99.90
7622;DHT22;3852;52.284;8.032;2022-12-05T19:16:53;2.30;99.90
7622;DHT22;3852;52.284;8.032;2022-12-05T19:19:20;2.40;99.90
7622;DHT22;3852;52.284;8.032;2022-12-05T19:21:47;2.30;99.90
7622;DHT22;3852;52.284;8.032;2022-12-05T19:24:15;2.40;99.90
7622;DHT22;3852;52.284;8.032;2022-12-05T19:26:42;2.30;99.90
7622;DHT22;3852;52.284;8.032;2022-12-05T19:29:12;2.40;99.90
7622;DHT22;3852;52.284;8.032;2022-12-05T19:31:41;2.40;99.90
7622;DHT22;3852;52.284;8.032;2022-12-05T19:34:08;2.40;99.90
7622;DHT22;3852;52.284;8.032;2022-12-05T19:36:36;2.40;99.90
7622;DHT22;3852;52.284;8.032;2022-12-05T19:39:19;2.40;99.90
7622;DHT22;3852;52.284;8.032;2022-12-05T19:41:47;2.40;99.90
7622;DHT22;3852;52.284;8.032;2022-12-05T19:44:13;2.30;99.90
7622;DHT22;3852;52.284;8.032;2022-12-05T19:46:40;2.30;99.90
7622;DHT22;3852;52.284;8.032;2022-12-05T19:49:09;2.30;99.90
7622;DHT22;3852;52.284;8.032;2022-12-05T19:51:37;2.30;99.90
7622;DHT22;3852;52.284;8.032;2022-12-05T19:54:05;2.30;99.90
7622;DHT22;3852;52.284;8.032;2022-12-05T19:56:33;2.20;99.90
7622;DHT22;3852;52.284;8.032;2022-12-05T19:58:59;2.20;99.90
7622;DHT22;3852;52.284;8.032;2022-12-05T20:01:28;2.20;99.90
7622;DHT22;3852;52.284;8.032;2022-12-05T20:06:29;2.10;99.90
7622;DHT22;3852;52.284;8.032;2022-12-05T20:09:04;2.10;99.90
7622;DHT22;3852;52.284;8.032;2022-12-05T20:11:31;2.10;99.90
7622;DHT22;3852;52.284;8.032;2022-12-05T20:13:58;2.20;99.90
7622;DHT22;3852;52.284;8.032;2022-12-05T20:16:26;2.20;99.90
7622;DHT22;3852;52.284;8.032;2022-12-05T20:18:54;2.20;99.90
7622;DHT22;3852;52.284;8.032;2022-12-05T20:21:23;2.20;99.90